Time;durP1;ratioP1;P1;durP2;ratioP2;P2;SDS_P1;SDS_P2;PMS_P1;PMS_P2;Temp;Humidity;BMP_temperature;BMP_pressure;BME280_temperature;BME280_humidity;BME280_pressure;Samples;Min_cycle;Max_cycle;Signal;HPM_P1;HPM_P2
2023/08/30 00:00:30;;;;;;;17.08;15.68;;;;;;;;;;5066442;28;20510;-73
2023/08/30 00:02:57;;;;;;;17.75;16.20;;;;;;;;;;5055789;28;20472;-73
2023/08/30 00:05:24;;;;;;;16.85;15.45;;;;;;;;;;5068700;28;20427;-74
2023/08/30 00:07:52;;;;;;;16.85;15.55;;;;;;;;;;5068809;28;20443;-73
2023/08/30 00:10:19;;;;;;;16.98;15.52;;;;;;;;;;5054687;28;20444;-74
2023/08/30 00:12:46;;;;;;;17.15;15.85;;;;;;;;;;5052492;28;20437;-73
2023/08/30 00:15:15;;;;;;;17.00;15.60;;;;;;;;;;5064468;28;20469;-73
2023/08/30 00:17:42;;;;;;;16.63;15.43;;;;;;;;;;5053026;28;20429;-73
2023/08/30 00:20:09;;;;;;;16.35;15.05;;;;;;;;;;5063877;28;20455;-73
2023/08/30 00:22:37;;;;;;;15.75;14.45;;;;;;;;;;5064995;28;20707;-73
2023/08/30 00:25:04;;;;;;;15.75;14.35;;;;;;;;;;5060684;28;20765;-73
2023/08/30 00:27:31;;;;;;;15.85;14.55;;;;;;;;;;5069209;28;20917;-73
2023/08/30 00:29:58;;;;;;;15.65;14.25;;;;;;;;;;5060932;28;20432;-73
2023/08/30 00:32:26;;;;;;;15.10;13.80;;;;;;;;;;5057630;28;20429;-73
2023/08/30 00:34:53;;;;;;;15.07;13.80;;;;;;;;;;5052427;28;20425;-74
2023/08/30 00:37:20;;;;;;;15.03;13.83;;;;;;;;;;5057625;28;20440;-73
2023/08/30 00:39:47;;;;;;;14.65;13.25;;;;;;;;;;5060361;28;20450;-73
2023/08/30 00:42:14;;;;;;;13.82;12.60;;;;;;;;;;5059294;28;20429;-73
2023/08/30 00:44:42;;;;;;;14.05;12.95;;;;;;;;;;5067900;28;20432;-73
2023/08/30 00:47:09;;;;;;;13.57;12.38;;;;;;;;;;5056399;28;20460;-73
2023/08/30 00:49:37;;;;;;;14.15;12.95;;;;;;;;;;5057256;28;20434;-73
2023/08/30 00:52:07;;;;;;;13.50;12.40;;;;;;;;;;5056240;28;20526;-73
2023/08/30 00:54:34;;;;;;;13.95;12.75;;;;;;;;;;5059640;28;20444;-72
2023/08/30 00:57:02;;;;;;;14.35;13.25;;;;;;;;;;5059956;28;20448;-73
2023/08/30 00:59:29;;;;;;;13.73;12.52;;;;;;;;;;5052996;28;20462;-74
2023/08/30 01:01:56;;;;;;;13.68;12.48;;;;;;;;;;5061350;28;20425;-72
2023/08/30 01:04:24;;;;;;;13.57;12.38;;;;;;;;;;5058135;28;20435;-73
2023/08/30 01:06:52;;;;;;;13.30;12.10;;;;;;;;;;5066147;28;20434;-73
2023/08/30 01:09:19;;;;;;;13.90;12.65;;;;;;;;;;5059810;28;20428;-73
2023/08/30 01:11:50;;;;;;;13.23;12.13;;;;;;;;;;5060206;28;20435;-72
2023/08/30 01:14:20;;;;;;;13.45;12.25;;;;;;;;;;5052944;28;20401;-73
2023/08/30 01:16:47;;;;;;;13.55;12.35;;;;;;;;;;5062449;28;20440;-73
2023/08/30 01:19:24;;;;;;;13.32;12.13;;;;;;;;;;5057619;28;20423;-74
2023/08/30 01:21:58;;;;;;;13.52;12.43;;;;;;;;;;5064750;28;20444;-75
2023/08/30 01:24:27;;;;;;;13.10;12.00;;;;;;;;;;5065286;28;20413;-74
2023/08/30 01:27:05;;;;;;;14.43;13.20;;;;;;;;;;5065058;28;20910;-73
2023/08/30 01:29:33;;;;;;;14.43;13.13;;;;;;;;;;5054048;28;20395;-73
2023/08/30 01:32:00;;;;;;;14.32;13.02;;;;;;;;;;5062224;28;20442;-73
2023/08/30 01:34:27;;;;;;;13.53;12.43;;;;;;;;;;5059861;28;20440;-73
2023/08/30 01:36:54;;;;;;;13.27;12.18;;;;;;;;;;5062606;28;20905;-73
2023/08/30 01:39:22;;;;;;;13.23;12.23;;;;;;;;;;5056804;28;21123;-73
2023/08/30 01:41:52;;;;;;;13.45;12.25;;;;;;;;;;5062313;28;20796;-73
2023/08/30 01:44:20;;;;;;;13.73;12.52;;;;;;;;;;5051528;28;20425;-73
2023/08/30 01:46:48;;;;;;;12.73;11.73;;;;;;;;;;5064276;28;20428;-74
2023/08/30 01:49:15;;;;;;;13.30;12.00;;;;;;;;;;5066445;28;20428;-73
2023/08/30 01:51:42;;;;;;;12.38;11.38;;;;;;;;;;5060512;28;20456;-74
2023/08/30 01:54:11;;;;;;;12.93;11.80;;;;;;;;;;5052833;28;20417;-73
2023/08/30 01:56:38;;;;;;;13.02;12.02;;;;;;;;;;5070949;28;20472;-73
2023/08/30 01:59:05;;;;;;;12.55;11.43;;;;;;;;;;5067136;28;20433;-73
2023/08/30 02:01:33;;;;;;;12.35;11.35;;;;;;;;;;5065647;28;20429;-74
2023/08/30 02:04:01;;;;;;;12.02;11.02;;;;;;;;;;5060961;28;20431;-73
2023/08/30 02:06:31;;;;;;;11.63;10.73;;;;;;;;;;5067777;28;20427;-73
2023/08/30 02:09:00;;;;;;;12.60;11.50;;;;;;;;;;5061864;28;20437;-73
2023/08/30 02:11:29;;;;;;;13.25;12.15;;;;;;;;;;5064959;28;20425;-73
2023/08/30 02:13:58;;;;;;;14.13;12.93;;;;;;;;;;5053787;28;20409;-73
2023/08/30 02:16:26;;;;;;;13.48;12.18;;;;;;;;;;5069849;28;20431;-73
2023/08/30 02:18:55;;;;;;;12.65;11.65;;;;;;;;;;5063464;28;20438;-73
2023/08/30 02:21:22;;;;;;;12.57;11.38;;;;;;;;;;5058830;28;20861;-72
2023/08/30 02:23:51;;;;;;;13.00;11.90;;;;;;;;;;5052072;28;20417;-73
2023/08/30 02:26:19;;;;;;;12.43;11.43;;;;;;;;;;5068327;28;20431;-73
2023/08/30 02:28:47;;;;;;;13.32;12.20;;;;;;;;;;5061955;28;20487;-73
2023/08/30 02:31:14;;;;;;;13.02;11.93;;;;;;;;;;5075501;28;20434;-73
2023/08/30 02:33:41;;;;;;;14.50;13.30;;;;;;;;;;5072913;28;20424;-73
2023/08/30 02:36:10;;;;;;;13.20;12.10;;;;;;;;;;5067458;28;20432;-73
2023/08/30 02:38:37;;;;;;;13.55;12.45;;;;;;;;;;5060608;28;20806;-72
2023/08/30 02:41:04;;;;;;;13.27;12.18;;;;;;;;;;5066461;28;20450;-73
2023/08/30 02:43:31;;;;;;;12.85;11.85;;;;;;;;;;5068041;28;20416;-73
2023/08/30 02:45:58;;;;;;;13.30;12.10;;;;;;;;;;5058416;28;20432;-72
2023/08/30 02:48:25;;;;;;;13.35;12.25;;;;;;;;;;5060227;28;20441;-73
2023/08/30 02:50:52;;;;;;;12.57;11.57;;;;;;;;;;5062015;28;20416;-73
2023/08/30 02:53:21;;;;;;;13.25;12.15;;;;;;;;;;5081948;28;20423;-73
2023/08/30 02:55:48;;;;;;;13.52;12.43;;;;;;;;;;5075301;28;20435;-73
2023/08/30 02:58:15;;;;;;;13.70;12.30;;;;;;;;;;5070686;28;20480;-74
2023/08/30 03:00:42;;;;;;;13.13;12.10;;;;;;;;;;5065642;28;20424;-73
2023/08/30 03:03:09;;;;;;;13.10;11.90;;;;;;;;;;5065725;28;20430;-73
2023/08/30 03:05:36;;;;;;;13.52;12.43;;;;;;;;;;5068682;28;20418;-73
2023/08/30 03:08:03;;;;;;;13.07;11.88;;;;;;;;;;5076532;28;20436;-73
2023/08/30 03:10:32;;;;;;;13.40;12.10;;;;;;;;;;5073634;28;20815;-73
2023/08/30 03:12:59;;;;;;;12.32;11.32;;;;;;;;;;5063100;28;20412;-73
2023/08/30 03:15:26;;;;;;;13.25;12.10;;;;;;;;;;5069826;28;20454;-73
2023/08/30 03:17:53;;;;;;;12.45;11.35;;;;;;;;;;5066701;28;20442;-73
2023/08/30 03:20:20;;;;;;;13.73;12.43;;;;;;;;;;5057247;28;20428;-73
2023/08/30 03:22:47;;;;;;;13.93;12.73;;;;;;;;;;5060571;28;20433;-73
2023/08/30 03:25:14;;;;;;;13.85;12.73;;;;;;;;;;5067782;28;20450;-73
2023/08/30 03:27:42;;;;;;;13.38;12.38;;;;;;;;;;5056484;28;20427;-73
2023/08/30 03:30:10;;;;;;;12.52;11.52;;;;;;;;;;5058779;28;20427;-74
2023/08/30 03:32:38;;;;;;;13.80;12.50;;;;;;;;;;5055411;28;20492;-73
2023/08/30 03:35:05;;;;;;;13.65;12.55;;;;;;;;;;5058273;28;20427;-73
2023/08/30 03:37:32;;;;;;;13.50;12.40;;;;;;;;;;5067881;28;20431;-73
2023/08/30 03:39:59;;;;;;;13.70;12.50;;;;;;;;;;5068323;28;20922;-73
2023/08/30 03:42:27;;;;;;;14.10;13.00;;;;;;;;;;5055915;28;20428;-72
2023/08/30 03:44:55;;;;;;;14.25;13.05;;;;;;;;;;5090673;22;20415;-75
2023/08/30 03:47:22;;;;;;;13.07;11.88;;;;;;;;;;5057792;28;20433;-75
2023/08/30 03:49:49;;;;;;;13.18;12.00;;;;;;;;;;5056366;28;20440;-75
2023/08/30 03:52:16;;;;;;;13.10;12.10;;;;;;;;;;5059215;28;20408;-75
2023/08/30 03:54:43;;;;;;;13.90;12.60;;;;;;;;;;5063238;28;20427;-75
2023/08/30 03:57:10;;;;;;;14.20;12.90;;;;;;;;;;5048125;28;20413;-75
2023/08/30 03:59:37;;;;;;;13.60;12.50;;;;;;;;;;5053488;28;21082;-75
2023/08/30 04:02:06;;;;;;;13.00;12.00;;;;;;;;;;5051536;28;20459;-75
2023/08/30 04:04:33;;;;;;;13.37;12.20;;;;;;;;;;5056060;28;20546;-76
2023/08/30 04:07:00;;;;;;;12.52;11.43;;;;;;;;;;5045918;28;20437;-75
2023/08/30 04:09:27;;;;;;;11.10;10.10;;;;;;;;;;5044500;28;20544;-76
2023/08/30 04:11:54;;;;;;;10.73;9.95;;;;;;;;;;5052930;28;20431;-75
2023/08/30 04:14:21;;;;;;;12.00;11.00;;;;;;;;;;5052279;28;20492;-75
2023/08/30 04:16:48;;;;;;;12.25;11.30;;;;;;;;;;5052342;28;20431;-75
2023/08/30 04:19:16;;;;;;;13.38;12.18;;;;;;;;;;5044590;28;20433;-73
2023/08/30 04:21:43;;;;;;;13.30;12.27;;;;;;;;;;5042377;28;20462;-72
2023/08/30 04:24:10;;;;;;;13.60;12.50;;;;;;;;;;5043495;28;20772;-72
2023/08/30 04:26:38;;;;;;;12.90;11.80;;;;;;;;;;5049357;28;20425;-72
2023/08/30 04:29:05;;;;;;;15.27;13.77;;;;;;;;;;5054197;28;20416;-72
2023/08/30 04:31:32;;;;;;;15.50;13.90;;;;;;;;;;5045026;28;20654;-72
2023/08/30 04:33:59;;;;;;;16.10;14.60;;;;;;;;;;5053191;28;20451;-72
2023/08/30 04:36:27;;;;;;;14.52;13.02;;;;;;;;;;5053033;28;20500;-73
2023/08/30 04:38:54;;;;;;;14.20;12.80;;;;;;;;;;5049716;28;20442;-73
2023/08/30 04:41:21;;;;;;;14.10;12.80;;;;;;;;;;5048188;28;20455;-73
2023/08/30 04:43:48;;;;;;;13.52;12.23;;;;;;;;;;5032176;28;20436;-73
2023/08/30 04:46:15;;;;;;;13.70;12.50;;;;;;;;;;5038156;28;20440;-74
2023/08/30 04:48:42;;;;;;;13.60;12.30;;;;;;;;;;5042859;28;20452;-73
2023/08/30 04:51:09;;;;;;;14.10;13.00;;;;;;;;;;5046391;28;20436;-73
2023/08/30 04:53:38;;;;;;;14.05;12.75;;;;;;;;;;5051383;28;20435;-72
2023/08/30 04:56:11;;;;;;;13.60;12.50;;;;;;;;;;5042813;28;20433;-73
2023/08/30 04:58:39;;;;;;;12.95;11.85;;;;;;;;;;5046626;28;20413;-73
2023/08/30 05:01:06;;;;;;;12.85;11.95;;;;;;;;;;5043534;28;20494;-72
2023/08/30 05:03:33;;;;;;;13.90;12.60;;;;;;;;;;5048652;28;20468;-71
2023/08/30 05:06:00;;;;;;;13.10;12.10;;;;;;;;;;5043198;28;20450;-73
2023/08/30 05:08:27;;;;;;;12.98;11.88;;;;;;;;;;5050962;28;20884;-72
2023/08/30 05:10:56;;;;;;;12.23;11.23;;;;;;;;;;5043950;28;20528;-72
2023/08/30 05:13:23;;;;;;;13.10;12.00;;;;;;;;;;5048902;28;20563;-72
2023/08/30 05:15:51;;;;;;;12.10;11.20;;;;;;;;;;5042516;28;20445;-72
2023/08/30 05:18:18;;;;;;;12.32;11.38;;;;;;;;;;5046286;28;20831;-72
2023/08/30 05:20:45;;;;;;;13.05;11.85;;;;;;;;;;5053787;28;20455;-72
2023/08/30 05:23:12;;;;;;;13.20;12.10;;;;;;;;;;5042118;28;20429;-71
2023/08/30 05:25:40;;;;;;;12.40;11.30;;;;;;;;;;5049804;28;20444;-72
2023/08/30 05:28:08;;;;;;;12.00;11.00;;;;;;;;;;5041187;28;20857;-72
2023/08/30 05:30:35;;;;;;;11.93;10.93;;;;;;;;;;5038561;28;20426;-72
2023/08/30 05:33:03;;;;;;;12.32;11.23;;;;;;;;;;5041336;28;20433;-72
2023/08/30 05:35:30;;;;;;;12.40;11.30;;;;;;;;;;5044609;28;20616;-73
2023/08/30 05:37:57;;;;;;;12.57;11.47;;;;;;;;;;5046151;28;20544;-72
2023/08/30 05:40:24;;;;;;;12.35;11.35;;;;;;;;;;5051075;28;20429;-72
2023/08/30 05:42:51;;;;;;;12.80;11.70;;;;;;;;;;5046241;28;20491;-72
2023/08/30 05:45:20;;;;;;;12.30;11.30;;;;;;;;;;5043839;28;20444;-72
2023/08/30 05:47:47;;;;;;;12.17;11.17;;;;;;;;;;5046799;28;20594;-72
2023/08/30 05:50:14;;;;;;;12.57;11.47;;;;;;;;;;5039554;28;20451;-70
2023/08/30 05:52:44;;;;;;;11.90;10.90;;;;;;;;;;5027471;28;20425;-69
2023/08/30 05:55:11;;;;;;;11.65;10.65;;;;;;;;;;5045000;28;20435;-69
2023/08/30 05:57:38;;;;;;;12.35;11.35;;;;;;;;;;5037856;28;20429;-68
2023/08/30 06:00:06;;;;;;;12.68;11.63;;;;;;;;;;5046454;28;20448;-69
2023/08/30 06:02:35;;;;;;;11.55;10.60;;;;;;;;;;5048325;28;20512;-70
2023/08/30 06:05:02;;;;;;;11.40;10.50;;;;;;;;;;5045961;28;20874;-69
2023/08/30 06:07:29;;;;;;;11.48;10.38;;;;;;;;;;5039412;28;20520;-70
2023/08/30 06:09:56;;;;;;;12.10;11.10;;;;;;;;;;5048642;28;20428;-70
2023/08/30 06:12:25;;;;;;;12.52;11.43;;;;;;;;;;5054808;28;20439;-70
2023/08/30 06:14:52;;;;;;;11.35;10.40;;;;;;;;;;5045875;28;20527;-70
2023/08/30 06:17:19;;;;;;;12.25;11.15;;;;;;;;;;5047377;28;20436;-70
2023/08/30 06:19:48;;;;;;;11.55;10.55;;;;;;;;;;5055868;28;20407;-70
2023/08/30 06:22:15;;;;;;;12.10;11.02;;;;;;;;;;5043085;28;20457;-70
2023/08/30 06:24:42;;;;;;;11.35;10.35;;;;;;;;;;5054126;28;20488;-70
2023/08/30 06:27:09;;;;;;;11.70;10.60;;;;;;;;;;5046298;28;20440;-70
2023/08/30 06:29:36;;;;;;;11.30;10.48;;;;;;;;;;5053194;28;20431;-70
2023/08/30 06:32:03;;;;;;;11.95;11.00;;;;;;;;;;5044066;28;20650;-70
2023/08/30 06:34:31;;;;;;;11.85;10.82;;;;;;;;;;5055674;28;20406;-70
2023/08/30 06:36:59;;;;;;;12.20;11.20;;;;;;;;;;5048791;28;20428;-71
2023/08/30 06:39:26;;;;;;;12.43;11.23;;;;;;;;;;5042091;28;20456;-70
2023/08/30 06:41:53;;;;;;;11.85;10.85;;;;;;;;;;5055476;28;20424;-70
2023/08/30 06:44:21;;;;;;;11.90;10.80;;;;;;;;;;5056865;28;20414;-70
2023/08/30 06:46:48;;;;;;;11.10;10.00;;;;;;;;;;5050403;28;20799;-70
2023/08/30 06:49:15;;;;;;;11.60;10.60;;;;;;;;;;5042354;28;20444;-70
2023/08/30 06:51:43;;;;;;;11.10;10.20;;;;;;;;;;5060305;28;20537;-70
2023/08/30 06:54:12;;;;;;;10.40;9.60;;;;;;;;;;5053762;28;20427;-70
2023/08/30 06:56:39;;;;;;;10.45;9.45;;;;;;;;;;5061669;28;20415;-70
2023/08/30 06:59:06;;;;;;;10.70;9.80;;;;;;;;;;5050626;28;20409;-70
2023/08/30 07:01:33;;;;;;;9.73;8.93;;;;;;;;;;5057102;28;20435;-70
2023/08/30 07:04:00;;;;;;;10.50;9.60;;;;;;;;;;5055233;28;20415;-70
2023/08/30 07:06:30;;;;;;;10.65;9.30;;;;;;;;;;5057847;28;20419;-72
2023/08/30 07:08:57;;;;;;;10.45;9.45;;;;;;;;;;5047891;28;20535;-72
2023/08/30 07:11:26;;;;;;;10.10;9.10;;;;;;;;;;5063685;28;20407;-72
2023/08/30 07:13:53;;;;;;;9.73;8.93;;;;;;;;;;5055014;28;20864;-72
2023/08/30 07:16:20;;;;;;;10.10;9.20;;;;;;;;;;5058730;28;20436;-72
2023/08/30 07:18:47;;;;;;;9.35;8.55;;;;;;;;;;5059004;28;20408;-72
2023/08/30 07:21:14;;;;;;;9.40;8.60;;;;;;;;;;5053265;28;20430;-72
2023/08/30 07:23:41;;;;;;;9.50;8.70;;;;;;;;;;5052394;28;20460;-73
2023/08/30 07:26:08;;;;;;;9.10;8.40;;;;;;;;;;5051385;28;20910;-72
2023/08/30 07:28:36;;;;;;;8.75;7.93;;;;;;;;;;5054284;28;20411;-72
2023/08/30 07:31:04;;;;;;;8.18;7.47;;;;;;;;;;5053002;28;20404;-73
2023/08/30 07:33:31;;;;;;;8.20;7.40;;;;;;;;;;5053653;28;20774;-73
2023/08/30 07:35:58;;;;;;;7.75;7.05;;;;;;;;;;5057388;28;20407;-73
2023/08/30 07:38:25;;;;;;;7.30;6.70;;;;;;;;;;5054704;28;20453;-72
2023/08/30 07:40:52;;;;;;;6.90;6.20;;;;;;;;;;5064644;28;20412;-73
2023/08/30 07:43:19;;;;;;;7.03;6.43;;;;;;;;;;5051487;28;20485;-73
2023/08/30 07:45:49;;;;;;;7.30;6.60;;;;;;;;;;5053261;28;20427;-73
2023/08/30 07:48:16;;;;;;;5.80;5.30;;;;;;;;;;5054218;28;20433;-73
2023/08/30 07:50:43;;;;;;;6.50;5.45;;;;;;;;;;5062250;28;20412;-73
2023/08/30 07:53:10;;;;;;;5.22;4.72;;;;;;;;;;5057614;28;20721;-72
2023/08/30 07:55:36;;;;;;;5.10;4.30;;;;;;;;;;5047399;28;20429;-71
2023/08/30 07:58:03;;;;;;;5.30;4.80;;;;;;;;;;5053188;28;20597;-71
2023/08/30 08:00:31;;;;;;;5.30;4.80;;;;;;;;;;5058378;28;20845;-73
2023/08/30 08:02:59;;;;;;;5.35;4.85;;;;;;;;;;5051188;28;20477;-71
2023/08/30 08:05:26;;;;;;;5.30;4.80;;;;;;;;;;5050319;28;20417;-71
2023/08/30 08:07:54;;;;;;;5.10;4.70;;;;;;;;;;5058567;28;20435;-71
2023/08/30 08:10:22;;;;;;;5.43;4.70;;;;;;;;;;5046989;28;20429;-71
2023/08/30 08:12:49;;;;;;;5.35;4.85;;;;;;;;;;5057774;28;20423;-71
2023/08/30 08:15:16;;;;;;;5.60;4.57;;;;;;;;;;5054441;28;20516;-71
2023/08/30 08:17:43;;;;;;;6.45;4.28;;;;;;;;;;5055225;28;20531;-71
2023/08/30 08:20:12;;;;;;;4.85;4.28;;;;;;;;;;5051615;28;20831;-71
2023/08/30 08:22:39;;;;;;;4.50;4.10;;;;;;;;;;5042414;28;20447;-71
2023/08/30 08:25:09;;;;;;;5.28;4.00;;;;;;;;;;5046893;28;20433;-71
2023/08/30 08:27:36;;;;;;;4.35;3.78;;;;;;;;;;5040568;28;20419;-72
2023/08/30 08:30:04;;;;;;;4.20;3.40;;;;;;;;;;5048328;28;20488;-71
2023/08/30 08:32:32;;;;;;;4.30;3.80;;;;;;;;;;5053899;28;20895;-73
2023/08/30 08:34:59;;;;;;;3.60;3.30;;;;;;;;;;5047432;28;20417;-73
2023/08/30 08:37:27;;;;;;;5.13;3.50;;;;;;;;;;5048791;28;20430;-73
2023/08/30 08:39:54;;;;;;;8.07;3.22;;;;;;;;;;5048726;28;20801;-71
2023/08/30 08:42:22;;;;;;;3.93;3.50;;;;;;;;;;5045757;28;20429;-73
2023/08/30 08:44:49;;;;;;;3.45;2.90;;;;;;;;;;5038629;28;20412;-73
2023/08/30 08:47:16;;;;;;;3.40;2.80;;;;;;;;;;5051590;28;20448;-73
2023/08/30 08:49:44;;;;;;;4.85;3.30;;;;;;;;;;5048368;28;20403;-74
2023/08/30 08:52:11;;;;;;;3.05;2.58;;;;;;;;;;5053771;28;20448;-73
2023/08/30 08:54:42;;;;;;;3.85;2.65;;;;;;;;;;5044340;28;20431;-73
2023/08/30 08:57:09;;;;;;;3.63;2.65;;;;;;;;;;5054260;28;20438;-73
2023/08/30 08:59:36;;;;;;;3.40;3.10;;;;;;;;;;5050577;28;20910;-73
2023/08/30 09:02:03;;;;;;;3.53;2.60;;;;;;;;;;5047149;28;20440;-73
2023/08/30 09:04:32;;;;;;;2.80;2.20;;;;;;;;;;5055161;28;21012;-72
2023/08/30 09:06:59;;;;;;;2.60;2.30;;;;;;;;;;5056197;28;20433;-73
2023/08/30 09:09:27;;;;;;;3.40;2.60;;;;;;;;;;5048121;28;20566;-73
2023/08/30 09:11:55;;;;;;;3.05;2.60;;;;;;;;;;5055197;28;20869;-72
2023/08/30 09:14:22;;;;;;;3.00;2.70;;;;;;;;;;5053764;28;20860;-73
2023/08/30 09:16:55;;;;;;;3.80;2.70;;;;;;;;;;5058456;28;20504;-73
2023/08/30 09:19:23;;;;;;;3.38;2.40;;;;;;;;;;5059826;28;20423;-73
2023/08/30 09:21:53;;;;;;;3.45;2.60;;;;;;;;;;5056214;28;20405;-73
2023/08/30 09:24:20;;;;;;;5.35;3.03;;;;;;;;;;5052651;28;20447;-73
2023/08/30 09:26:49;;;;;;;3.28;2.97;;;;;;;;;;5050838;28;20551;-71
2023/08/30 09:29:18;;;;;;;5.75;3.70;;;;;;;;;;5061527;28;20404;-73
2023/08/30 09:31:45;;;;;;;6.25;2.75;;;;;;;;;;5051052;28;20432;-73
2023/08/30 09:34:12;;;;;;;4.80;3.30;;;;;;;;;;5057068;28;20408;-72
2023/08/30 09:36:40;;;;;;;3.55;2.90;;;;;;;;;;5053679;28;20789;-72
2023/08/30 09:39:07;;;;;;;4.88;3.20;;;;;;;;;;5047158;28;20429;-72
2023/08/30 09:41:34;;;;;;;3.45;3.15;;;;;;;;;;5060323;28;20435;-73
2023/08/30 09:44:01;;;;;;;3.97;2.83;;;;;;;;;;5057647;28;20771;-73
2023/08/30 09:46:30;;;;;;;4.10;3.10;;;;;;;;;;5086002;22;20558;-72
2023/08/30 09:48:57;;;;;;;3.38;2.72;;;;;;;;;;5084279;28;20417;-72
2023/08/30 09:51:26;;;;;;;5.60;3.40;;;;;;;;;;5074665;28;20416;-70
2023/08/30 09:53:55;;;;;;;6.30;3.90;;;;;;;;;;5087361;28;20453;-71
2023/08/30 09:56:23;;;;;;;4.88;3.60;;;;;;;;;;5080920;28;20418;-70
2023/08/30 09:58:50;;;;;;;5.35;3.50;;;;;;;;;;5089627;28;20418;-72
2023/08/30 10:01:18;;;;;;;4.60;3.40;;;;;;;;;;5089655;28;20410;-72
2023/08/30 10:03:47;;;;;;;3.22;2.58;;;;;;;;;;5088168;28;20801;-72
2023/08/30 10:06:15;;;;;;;3.70;2.80;;;;;;;;;;5085645;28;20950;-72
2023/08/30 10:08:42;;;;;;;3.90;3.30;;;;;;;;;;5077436;28;20477;-73
2023/08/30 10:11:11;;;;;;;3.45;2.90;;;;;;;;;;5088799;28;20433;-72
2023/08/30 10:13:40;;;;;;;4.05;2.97;;;;;;;;;;5084547;28;20414;-72
2023/08/30 10:16:07;;;;;;;3.15;2.85;;;;;;;;;;5096081;28;20406;-71
2023/08/30 10:18:35;;;;;;;4.95;3.00;;;;;;;;;;5105753;28;20406;-71
2023/08/30 10:21:08;;;;;;;3.30;3.00;;;;;;;;;;5090645;28;20425;-69
2023/08/30 10:23:35;;;;;;;3.63;2.70;;;;;;;;;;5097403;28;20958;-72
2023/08/30 10:26:04;;;;;;;3.38;2.70;;;;;;;;;;5091609;28;20425;-70
2023/08/30 10:28:31;;;;;;;4.95;3.20;;;;;;;;;;5089327;28;20442;-72
2023/08/30 10:30:58;;;;;;;4.30;3.15;;;;;;;;;;5092660;28;20907;-71
2023/08/30 10:33:25;;;;;;;4.78;3.10;;;;;;;;;;5092126;28;20409;-70
2023/08/30 10:35:55;;;;;;;4.30;3.40;;;;;;;;;;5092484;28;20410;-71
2023/08/30 10:38:27;;;;;;;4.03;3.22;;;;;;;;;;5090673;28;20469;-72
2023/08/30 10:40:55;;;;;;;5.15;3.20;;;;;;;;;;5091543;28;20418;-71
2023/08/30 10:43:31;;;;;;;3.80;3.20;;;;;;;;;;5092064;28;20426;-72
2023/08/30 10:46:02;;;;;;;5.30;3.40;;;;;;;;;;5100827;28;20406;-72
2023/08/30 10:48:35;;;;;;;4.40;2.90;;;;;;;;;;5092536;28;20425;-70
2023/08/30 10:51:04;;;;;;;3.37;2.60;;;;;;;;;;5092493;28;20953;-71
2023/08/30 10:53:32;;;;;;;3.63;2.92;;;;;;;;;;5090768;28;20436;-73
2023/08/30 10:56:09;;;;;;;3.47;2.90;;;;;;;;;;5092124;28;20410;-72
2023/08/30 10:58:43;;;;;;;4.22;2.95;;;;;;;;;;5095360;28;20412;-70
2023/08/30 11:01:11;;;;;;;3.80;3.20;;;;;;;;;;5087359;28;20428;-71
2023/08/30 11:03:38;;;;;;;4.72;3.20;;;;;;;;;;5084209;28;20434;-71
2023/08/30 11:06:06;;;;;;;3.72;2.83;;;;;;;;;;5090117;28;20425;-70
2023/08/30 11:08:35;;;;;;;4.50;3.03;;;;;;;;;;5090292;28;20431;-71
2023/08/30 11:11:04;;;;;;;4.20;3.40;;;;;;;;;;5093159;28;20467;-70
2023/08/30 11:13:32;;;;;;;3.80;3.40;;;;;;;;;;5092160;28;20406;-70
2023/08/30 11:16:02;;;;;;;4.97;3.10;;;;;;;;;;5092391;28;20410;-71
2023/08/30 11:18:29;;;;;;;6.38;3.22;;;;;;;;;;5090380;28;20438;-71
2023/08/30 11:21:00;;;;;;;3.53;3.03;;;;;;;;;;5089661;28;20822;-72
2023/08/30 11:23:27;;;;;;;5.72;3.80;;;;;;;;;;5090725;28;20927;-71
2023/08/30 11:25:55;;;;;;;5.10;3.80;;;;;;;;;;5091893;28;20417;-70
2023/08/30 11:28:23;;;;;;;4.45;3.70;;;;;;;;;;5090200;28;20904;-72
2023/08/30 11:30:52;;;;;;;4.10;3.60;;;;;;;;;;5090394;28;20426;-70
2023/08/30 11:33:19;;;;;;;5.93;3.90;;;;;;;;;;5091959;28;20904;-71
2023/08/30 11:35:46;;;;;;;4.50;3.90;;;;;;;;;;5095383;28;20479;-70
2023/08/30 11:38:15;;;;;;;4.70;4.30;;;;;;;;;;5087635;28;20425;-70
2023/08/30 11:40:42;;;;;;;4.97;4.47;;;;;;;;;;5089730;28;20417;-70
2023/08/30 11:43:11;;;;;;;6.25;5.35;;;;;;;;;;5090741;28;20425;-72
2023/08/30 11:45:38;;;;;;;4.65;4.10;;;;;;;;;;5091126;28;20880;-70
2023/08/30 11:48:06;;;;;;;5.60;4.80;;;;;;;;;;5090055;28;20428;-70
2023/08/30 11:50:33;;;;;;;5.80;5.27;;;;;;;;;;5091024;28;20416;-72
2023/08/30 11:53:00;;;;;;;6.10;5.60;;;;;;;;;;5084127;28;20803;-70
2023/08/30 11:55:27;;;;;;;5.90;5.30;;;;;;;;;;5089955;28;20487;-69
2023/08/30 11:57:54;;;;;;;6.10;5.50;;;;;;;;;;5094396;28;20468;-72
2023/08/30 12:00:24;;;;;;;7.20;5.85;;;;;;;;;;5099170;28;20429;-71
2023/08/30 12:02:51;;;;;;;6.82;5.70;;;;;;;;;;5104386;28;20422;-69
2023/08/30 12:05:18;;;;;;;6.57;5.90;;;;;;;;;;5110256;28;20420;-69
2023/08/30 12:07:47;;;;;;;6.30;5.70;;;;;;;;;;5099126;28;20430;-72
2023/08/30 12:10:14;;;;;;;6.03;5.45;;;;;;;;;;5092705;28;20418;-71
2023/08/30 12:12:46;;;;;;;6.35;5.80;;;;;;;;;;5087453;28;20804;-72
2023/08/30 12:15:14;;;;;;;6.00;5.40;;;;;;;;;;5082862;28;20497;-72
2023/08/30 12:17:42;;;;;;;6.28;5.50;;;;;;;;;;5078934;28;20881;-72
2023/08/30 12:20:17;;;;;;;6.43;5.82;;;;;;;;;;5091284;28;20441;-71
2023/08/30 12:22:44;;;;;;;5.70;5.20;;;;;;;;;;5088701;28;20457;-71
2023/08/30 12:25:18;;;;;;;7.68;5.97;;;;;;;;;;5086536;28;20440;-72
2023/08/30 12:27:45;;;;;;;6.40;5.80;;;;;;;;;;5088974;28;20447;-71
2023/08/30 12:30:12;;;;;;;6.60;6.00;;;;;;;;;;5079499;28;20774;-72
2023/08/30 12:32:39;;;;;;;7.35;5.60;;;;;;;;;;5086991;28;20413;-73
2023/08/30 12:35:08;;;;;;;7.07;6.30;;;;;;;;;;5083136;28;20429;-72
2023/08/30 12:37:35;;;;;;;7.20;6.60;;;;;;;;;;5089764;28;20418;-71
2023/08/30 12:40:03;;;;;;;5.40;4.90;;;;;;;;;;5088649;28;20504;-73
2023/08/30 12:42:30;;;;;;;6.40;5.80;;;;;;;;;;5089920;28;20452;-71
2023/08/30 12:44:58;;;;;;;6.25;5.70;;;;;;;;;;5089060;28;20426;-72
2023/08/30 12:47:25;;;;;;;6.10;5.20;;;;;;;;;;5084088;28;20848;-71
2023/08/30 12:49:52;;;;;;;4.00;3.60;;;;;;;;;;5086094;28;20900;-72
2023/08/30 12:52:20;;;;;;;3.30;2.78;;;;;;;;;;5088368;28;20885;-73
2023/08/30 12:54:47;;;;;;;3.15;2.85;;;;;;;;;;5088157;28;20923;-72
2023/08/30 12:57:15;;;;;;;2.40;2.20;;;;;;;;;;5089188;28;20433;-72
2023/08/30 12:59:42;;;;;;;3.60;2.50;;;;;;;;;;5086058;28;20404;-72
2023/08/30 13:02:09;;;;;;;3.10;2.80;;;;;;;;;;5087253;28;20400;-70
2023/08/30 13:04:37;;;;;;;3.33;2.75;;;;;;;;;;5087105;28;20438;-69
2023/08/30 13:07:05;;;;;;;2.60;2.40;;;;;;;;;;5089139;28;20488;-70
2023/08/30 13:09:33;;;;;;;2.97;2.55;;;;;;;;;;5090218;28;20429;-68
2023/08/30 13:12:00;;;;;;;3.50;3.20;;;;;;;;;;5092409;28;20495;-66
2023/08/30 13:14:28;;;;;;;3.33;2.80;;;;;;;;;;5088303;28;20922;-69
2023/08/30 13:16:55;;;;;;;3.00;2.80;;;;;;;;;;5088731;28;20488;-71
2023/08/30 13:19:22;;;;;;;3.17;2.88;;;;;;;;;;5088405;28;20429;-69
2023/08/30 13:21:49;;;;;;;3.40;3.10;;;;;;;;;;5097389;28;20425;-69
2023/08/30 13:24:16;;;;;;;4.57;4.07;;;;;;;;;;5089115;28;20739;-68
2023/08/30 13:26:44;;;;;;;3.90;3.60;;;;;;;;;;5085474;28;20897;-67
2023/08/30 13:29:11;;;;;;;3.90;3.60;;;;;;;;;;5084898;28;20930;-69
2023/08/30 13:31:39;;;;;;;4.22;3.83;;;;;;;;;;5090259;28;20414;-70
2023/08/30 13:34:06;;;;;;;3.63;3.33;;;;;;;;;;5088224;28;20426;-70
2023/08/30 13:36:33;;;;;;;3.83;3.53;;;;;;;;;;5089317;28;20425;-69
2023/08/30 13:39:00;;;;;;;3.60;3.30;;;;;;;;;;5090911;28;20516;-69
2023/08/30 13:41:27;;;;;;;3.85;3.50;;;;;;;;;;5088491;28;20414;-69
2023/08/30 13:43:55;;;;;;;4.70;4.30;;;;;;;;;;5094008;28;20455;-67
2023/08/30 13:46:22;;;;;;;3.97;3.67;;;;;;;;;;5099876;28;20433;-67
2023/08/30 13:48:49;;;;;;;3.50;3.20;;;;;;;;;;5105997;28;20493;-66
2023/08/30 13:51:22;;;;;;;3.40;3.10;;;;;;;;;;5101575;28;20407;-66
2023/08/30 13:53:49;;;;;;;3.50;2.90;;;;;;;;;;5102206;28;20424;-68
2023/08/30 13:56:16;;;;;;;3.05;2.80;;;;;;;;;;5091752;28;20406;-71
2023/08/30 13:58:43;;;;;;;3.33;3.03;;;;;;;;;;5083436;28;20426;-70
2023/08/30 14:01:11;;;;;;;3.30;3.00;;;;;;;;;;5086881;28;20409;-69
2023/08/30 14:03:38;;;;;;;3.40;3.10;;;;;;;;;;5089729;28;20433;-72
2023/08/30 14:06:06;;;;;;;3.22;2.92;;;;;;;;;;5088564;28;20716;-69
2023/08/30 14:08:33;;;;;;;4.63;3.10;;;;;;;;;;5095717;28;20900;-70
2023/08/30 14:11:00;;;;;;;5.13;3.63;;;;;;;;;;5101461;28;20404;-69
2023/08/30 14:13:28;;;;;;;4.22;3.83;;;;;;;;;;5092348;28;20907;-69
2023/08/30 14:15:55;;;;;;;4.93;3.72;;;;;;;;;;5092590;28;20414;-70
2023/08/30 14:18:23;;;;;;;5.45;4.22;;;;;;;;;;5091514;28;20428;-70
2023/08/30 14:20:50;;;;;;;4.00;3.60;;;;;;;;;;5096587;28;20910;-70
2023/08/30 14:23:17;;;;;;;4.22;3.40;;;;;;;;;;5091312;28;20428;-71
2023/08/30 14:25:44;;;;;;;4.10;3.70;;;;;;;;;;5087122;28;20409;-69
2023/08/30 14:28:11;;;;;;;4.25;3.53;;;;;;;;;;5100109;28;20433;-69
2023/08/30 14:30:38;;;;;;;4.30;3.90;;;;;;;;;;5092419;28;20425;-70
2023/08/30 14:33:06;;;;;;;4.22;3.83;;;;;;;;;;5095378;28;20420;-69